sensor_id;sensor_type;location;lat;lon;timestamp;P1;durP1;ratioP1;P2;durP2;ratioP2
4313;SDS011;2170;48.794;9.182;2023-08-30T00:00:18;16.37;;;15.07;;
4313;SDS011;2170;48.794;9.182;2023-08-30T00:02:56;15.90;;;14.60;;
4313;SDS011;2170;48.794;9.182;2023-08-30T00:05:27;17.47;;;15.87;;
4313;SDS011;2170;48.794;9.182;2023-08-30T00:07:58;16.83;;;15.63;;
4313;SDS011;2170;48.794;9.182;2023-08-30T00:10:35;17.23;;;15.90;;
4313;SDS011;2170;48.794;9.182;2023-08-30T00:13:13;15.43;;;14.13;;
4313;SDS011;2170;48.794;9.182;2023-08-30T00:15:49;16.90;;;15.33;;
4313;SDS011;2170;48.794;9.182;2023-08-30T00:18:19;15.60;;;14.30;;
4313;SDS011;2170;48.794;9.182;2023-08-30T00:23:37;15.03;;;13.83;;
4313;SDS011;2170;48.794;9.182;2023-08-30T00:26:09;15.63;;;14.43;;
4313;SDS011;2170;48.794;9.182;2023-08-30T00:28:39;14.53;;;13.30;;
4313;SDS011;2170;48.794;9.182;2023-08-30T00:31:10;15.40;;;14.07;;
4313;SDS011;2170;48.794;9.182;2023-08-30T00:33:42;14.40;;;13.33;;
4313;SDS011;2170;48.794;9.182;2023-08-30T00:36:15;14.93;;;13.60;;
4313;SDS011;2170;48.794;9.182;2023-08-30T00:38:58;14.23;;;13.13;;
4313;SDS011;2170;48.794;9.182;2023-08-30T00:41:31;14.00;;;12.90;;
4313;SDS011;2170;48.794;9.182;2023-08-30T00:44:08;15.03;;;13.70;;
4313;SDS011;2170;48.794;9.182;2023-08-30T00:46:39;14.53;;;13.53;;
4313;SDS011;2170;48.794;9.182;2023-08-30T00:49:12;14.33;;;13.30;;
4313;SDS011;2170;48.794;9.182;2023-08-30T00:51:43;15.27;;;13.97;;
4313;SDS011;2170;48.794;9.182;2023-08-30T00:54:13;15.57;;;14.40;;
4313;SDS011;2170;48.794;9.182;2023-08-30T00:56:44;15.33;;;14.23;;
4313;SDS011;2170;48.794;9.182;2023-08-30T00:59:21;13.53;;;12.63;;
4313;SDS011;2170;48.794;9.182;2023-08-30T01:01:51;14.30;;;13.10;;
4313;SDS011;2170;48.794;9.182;2023-08-30T01:04:23;13.87;;;12.67;;
4313;SDS011;2170;48.794;9.182;2023-08-30T01:07:07;14.20;;;12.77;;
4313;SDS011;2170;48.794;9.182;2023-08-30T01:09:48;12.23;;;11.27;;
4313;SDS011;2170;48.794;9.182;2023-08-30T01:12:28;12.60;;;11.60;;
4313;SDS011;2170;48.794;9.182;2023-08-30T01:15:06;11.33;;;10.53;;
4313;SDS011;2170;48.794;9.182;2023-08-30T01:17:44;12.20;;;11.20;;
4313;SDS011;2170;48.794;9.182;2023-08-30T01:20:28;12.23;;;11.23;;
4313;SDS011;2170;48.794;9.182;2023-08-30T01:23:23;11.17;;;10.37;;
4313;SDS011;2170;48.794;9.182;2023-08-30T01:26:13;11.83;;;11.10;;
4313;SDS011;2170;48.794;9.182;2023-08-30T01:28:56;12.63;;;11.73;;
4313;SDS011;2170;48.794;9.182;2023-08-30T01:31:52;12.47;;;11.40;;
4313;SDS011;2170;48.794;9.182;2023-08-30T01:34:34;11.77;;;10.97;;
4313;SDS011;2170;48.794;9.182;2023-08-30T01:37:07;12.63;;;11.53;;
4313;SDS011;2170;48.794;9.182;2023-08-30T01:39:44;12.67;;;11.77;;
4313;SDS011;2170;48.794;9.182;2023-08-30T01:42:29;12.27;;;11.37;;
4313;SDS011;2170;48.794;9.182;2023-08-30T01:45:12;14.27;;;13.17;;
4313;SDS011;2170;48.794;9.182;2023-08-30T01:47:53;12.93;;;11.93;;
4313;SDS011;2170;48.794;9.182;2023-08-30T01:50:29;12.40;;;11.57;;
4313;SDS011;2170;48.794;9.182;2023-08-30T01:53:03;12.70;;;11.90;;
4313;SDS011;2170;48.794;9.182;2023-08-30T01:55:44;12.97;;;11.87;;
4313;SDS011;2170;48.794;9.182;2023-08-30T01:58:23;13.53;;;12.53;;
4313;SDS011;2170;48.794;9.182;2023-08-30T02:01:02;11.77;;;10.87;;
4313;SDS011;2170;48.794;9.182;2023-08-30T02:03:47;12.77;;;11.87;;
4313;SDS011;2170;48.794;9.182;2023-08-30T02:06:47;13.23;;;12.23;;
4313;SDS011;2170;48.794;9.182;2023-08-30T02:09:34;13.30;;;12.00;;
4313;SDS011;2170;48.794;9.182;2023-08-30T02:12:13;12.67;;;11.70;;
4313;SDS011;2170;48.794;9.182;2023-08-30T02:14:47;12.67;;;11.77;;
4313;SDS011;2170;48.794;9.182;2023-08-30T02:17:25;13.27;;;12.17;;
4313;SDS011;2170;48.794;9.182;2023-08-30T02:20:00;13.40;;;12.50;;
4313;SDS011;2170;48.794;9.182;2023-08-30T02:22:38;14.00;;;12.80;;
4313;SDS011;2170;48.794;9.182;2023-08-30T02:25:10;13.27;;;12.03;;
4313;SDS011;2170;48.794;9.182;2023-08-30T02:27:49;13.33;;;12.40;;
4313;SDS011;2170;48.794;9.182;2023-08-30T02:30:26;12.97;;;12.07;;
4313;SDS011;2170;48.794;9.182;2023-08-30T02:33:05;13.50;;;12.40;;
4313;SDS011;2170;48.794;9.182;2023-08-30T02:35:48;13.93;;;12.93;;
4313;SDS011;2170;48.794;9.182;2023-08-30T02:38:19;13.00;;;11.90;;
4313;SDS011;2170;48.794;9.182;2023-08-30T02:40:53;13.37;;;12.37;;
4313;SDS011;2170;48.794;9.182;2023-08-30T02:43:32;14.57;;;13.30;;
4313;SDS011;2170;48.794;9.182;2023-08-30T02:46:03;13.70;;;12.70;;
4313;SDS011;2170;48.794;9.182;2023-08-30T02:48:36;13.27;;;12.37;;
4313;SDS011;2170;48.794;9.182;2023-08-30T02:51:17;13.37;;;12.33;;
4313;SDS011;2170;48.794;9.182;2023-08-30T02:53:51;13.53;;;12.40;;
4313;SDS011;2170;48.794;9.182;2023-08-30T02:56:44;13.77;;;12.77;;
4313;SDS011;2170;48.794;9.182;2023-08-30T02:59:25;14.00;;;12.77;;
4313;SDS011;2170;48.794;9.182;2023-08-30T03:01:56;13.20;;;12.10;;
4313;SDS011;2170;48.794;9.182;2023-08-30T03:04:33;13.90;;;12.60;;
4313;SDS011;2170;48.794;9.182;2023-08-30T03:07:00;12.93;;;11.93;;
4313;SDS011;2170;48.794;9.182;2023-08-30T03:09:31;13.60;;;12.50;;
4313;SDS011;2170;48.794;9.182;2023-08-30T03:12:07;12.60;;;11.70;;
4313;SDS011;2170;48.794;9.182;2023-08-30T03:14:36;13.37;;;12.47;;
4313;SDS011;2170;48.794;9.182;2023-08-30T03:23:08;12.73;;;11.73;;
4313;SDS011;2170;48.794;9.182;2023-08-30T03:25:47;13.00;;;12.10;;
4313;SDS011;2170;48.794;9.182;2023-08-30T03:28:21;15.23;;;14.03;;
4313;SDS011;2170;48.794;9.182;2023-08-30T03:30:56;14.03;;;12.93;;
4313;SDS011;2170;48.794;9.182;2023-08-30T03:33:29;13.60;;;12.53;;
4313;SDS011;2170;48.794;9.182;2023-08-30T03:36:04;14.00;;;12.90;;
4313;SDS011;2170;48.794;9.182;2023-08-30T03:38:49;14.60;;;13.50;;
4313;SDS011;2170;48.794;9.182;2023-08-30T03:41:18;14.27;;;13.17;;
4313;SDS011;2170;48.794;9.182;2023-08-30T03:43:53;15.13;;;13.87;;
4313;SDS011;2170;48.794;9.182;2023-08-30T03:46:26;13.60;;;12.63;;
4313;SDS011;2170;48.794;9.182;2023-08-30T03:49:07;12.63;;;11.73;;
4313;SDS011;2170;48.794;9.182;2023-08-30T03:54:34;14.20;;;13.20;;
4313;SDS011;2170;48.794;9.182;2023-08-30T04:02:40;14.80;;;13.30;;
4313;SDS011;2170;48.794;9.182;2023-08-30T04:05:23;13.70;;;12.70;;
4313;SDS011;2170;48.794;9.182;2023-08-30T04:08:13;13.07;;;12.07;;
4313;SDS011;2170;48.794;9.182;2023-08-30T04:10:57;13.47;;;12.50;;
4313;SDS011;2170;48.794;9.182;2023-08-30T04:13:42;15.37;;;14.17;;
4313;SDS011;2170;48.794;9.182;2023-08-30T04:16:17;15.13;;;13.77;;
4313;SDS011;2170;48.794;9.182;2023-08-30T04:18:51;14.30;;;13.00;;
4313;SDS011;2170;48.794;9.182;2023-08-30T04:21:23;13.93;;;12.97;;
4313;SDS011;2170;48.794;9.182;2023-08-30T04:23:57;13.90;;;12.90;;
4313;SDS011;2170;48.794;9.182;2023-08-30T04:26:24;15.03;;;13.67;;
4313;SDS011;2170;48.794;9.182;2023-08-30T04:28:53;14.87;;;13.77;;
4313;SDS011;2170;48.794;9.182;2023-08-30T04:31:24;15.50;;;14.20;;
4313;SDS011;2170;48.794;9.182;2023-08-30T04:33:53;13.73;;;12.63;;
4313;SDS011;2170;48.794;9.182;2023-08-30T04:36:25;14.40;;;13.30;;
4313;SDS011;2170;48.794;9.182;2023-08-30T04:38:58;14.40;;;13.30;;
4313;SDS011;2170;48.794;9.182;2023-08-30T04:41:30;15.47;;;14.03;;
4313;SDS011;2170;48.794;9.182;2023-08-30T04:44:02;14.87;;;13.77;;
4313;SDS011;2170;48.794;9.182;2023-08-30T04:46:43;14.23;;;13.13;;
4313;SDS011;2170;48.794;9.182;2023-08-30T04:49:17;13.23;;;12.13;;
4313;SDS011;2170;48.794;9.182;2023-08-30T04:51:46;14.70;;;13.40;;
4313;SDS011;2170;48.794;9.182;2023-08-30T04:54:16;14.40;;;13.40;;
4313;SDS011;2170;48.794;9.182;2023-08-30T04:56:58;14.23;;;13.07;;
4313;SDS011;2170;48.794;9.182;2023-08-30T04:59:47;14.10;;;13.00;;
4313;SDS011;2170;48.794;9.182;2023-08-30T05:02:18;14.47;;;13.27;;
4313;SDS011;2170;48.794;9.182;2023-08-30T05:04:48;15.00;;;13.80;;
4313;SDS011;2170;48.794;9.182;2023-08-30T05:07:31;15.17;;;13.90;;
4313;SDS011;2170;48.794;9.182;2023-08-30T05:10:13;15.23;;;14.03;;
4313;SDS011;2170;48.794;9.182;2023-08-30T05:12:59;14.10;;;13.00;;
4313;SDS011;2170;48.794;9.182;2023-08-30T05:16:10;13.97;;;12.83;;
4313;SDS011;2170;48.794;9.182;2023-08-30T05:18:52;14.80;;;13.50;;
4313;SDS011;2170;48.794;9.182;2023-08-30T05:21:27;14.97;;;13.87;;
4313;SDS011;2170;48.794;9.182;2023-08-30T05:24:03;14.83;;;13.63;;
4313;SDS011;2170;48.794;9.182;2023-08-30T05:26:50;14.63;;;13.53;;
4313;SDS011;2170;48.794;9.182;2023-08-30T05:29:18;15.30;;;13.93;;
4313;SDS011;2170;48.794;9.182;2023-08-30T05:31:52;14.33;;;13.20;;
4313;SDS011;2170;48.794;9.182;2023-08-30T05:34:30;15.80;;;14.70;;
4313;SDS011;2170;48.794;9.182;2023-08-30T05:37:06;13.67;;;12.57;;
4313;SDS011;2170;48.794;9.182;2023-08-30T05:42:52;14.40;;;13.30;;
4313;SDS011;2170;48.794;9.182;2023-08-30T05:45:45;14.73;;;13.40;;
4313;SDS011;2170;48.794;9.182;2023-08-30T05:51:45;13.50;;;12.47;;
4313;SDS011;2170;48.794;9.182;2023-08-30T05:54:45;13.57;;;12.27;;
4313;SDS011;2170;48.794;9.182;2023-08-30T05:57:21;13.77;;;12.67;;
4313;SDS011;2170;48.794;9.182;2023-08-30T05:59:52;12.87;;;11.97;;
4313;SDS011;2170;48.794;9.182;2023-08-30T06:02:23;13.10;;;12.10;;
4313;SDS011;2170;48.794;9.182;2023-08-30T06:05:09;14.10;;;12.90;;
4313;SDS011;2170;48.794;9.182;2023-08-30T06:07:36;16.53;;;15.30;;
4313;SDS011;2170;48.794;9.182;2023-08-30T06:10:10;13.30;;;12.33;;
4313;SDS011;2170;48.794;9.182;2023-08-30T06:12:48;13.60;;;12.30;;
4313;SDS011;2170;48.794;9.182;2023-08-30T06:15:25;13.17;;;12.27;;
4313;SDS011;2170;48.794;9.182;2023-08-30T06:18:06;12.73;;;11.73;;
4313;SDS011;2170;48.794;9.182;2023-08-30T06:20:53;12.40;;;11.37;;
4313;SDS011;2170;48.794;9.182;2023-08-30T06:23:31;13.00;;;11.90;;
4313;SDS011;2170;48.794;9.182;2023-08-30T06:26:23;13.53;;;12.43;;
4313;SDS011;2170;48.794;9.182;2023-08-30T06:29:02;11.90;;;10.90;;
4313;SDS011;2170;48.794;9.182;2023-08-30T06:31:41;11.77;;;10.67;;
4313;SDS011;2170;48.794;9.182;2023-08-30T06:34:25;12.47;;;11.37;;
4313;SDS011;2170;48.794;9.182;2023-08-30T06:36:53;13.47;;;11.80;;
4313;SDS011;2170;48.794;9.182;2023-08-30T06:39:34;12.50;;;11.60;;
4313;SDS011;2170;48.794;9.182;2023-08-30T06:42:10;11.50;;;10.60;;
4313;SDS011;2170;48.794;9.182;2023-08-30T06:44:46;11.30;;;10.40;;
4313;SDS011;2170;48.794;9.182;2023-08-30T06:47:25;10.40;;;9.60;;
4313;SDS011;2170;48.794;9.182;2023-08-30T06:49:54;10.80;;;10.00;;
4313;SDS011;2170;48.794;9.182;2023-08-30T06:52:40;10.03;;;9.30;;
4313;SDS011;2170;48.794;9.182;2023-08-30T06:55:15;11.37;;;10.37;;
4313;SDS011;2170;48.794;9.182;2023-08-30T06:57:47;11.40;;;10.60;;
4313;SDS011;2170;48.794;9.182;2023-08-30T07:00:19;12.33;;;11.10;;
4313;SDS011;2170;48.794;9.182;2023-08-30T07:02:53;11.03;;;10.23;;
4313;SDS011;2170;48.794;9.182;2023-08-30T07:05:27;10.03;;;9.23;;
4313;SDS011;2170;48.794;9.182;2023-08-30T07:08:11;9.80;;;8.93;;
4313;SDS011;2170;48.794;9.182;2023-08-30T07:10:47;10.17;;;9.40;;
4313;SDS011;2170;48.794;9.182;2023-08-30T07:13:25;10.00;;;9.20;;
4313;SDS011;2170;48.794;9.182;2023-08-30T07:16:05;9.00;;;8.30;;
4313;SDS011;2170;48.794;9.182;2023-08-30T07:18:39;10.47;;;9.77;;
4313;SDS011;2170;48.794;9.182;2023-08-30T07:21:09;9.60;;;8.90;;
4313;SDS011;2170;48.794;9.182;2023-08-30T07:23:56;9.50;;;8.80;;
4313;SDS011;2170;48.794;9.182;2023-08-30T07:26:26;10.17;;;9.37;;
4313;SDS011;2170;48.794;9.182;2023-08-30T07:29:03;9.07;;;8.47;;
4313;SDS011;2170;48.794;9.182;2023-08-30T07:31:36;10.17;;;9.37;;
4313;SDS011;2170;48.794;9.182;2023-08-30T07:34:11;9.30;;;8.60;;
4313;SDS011;2170;48.794;9.182;2023-08-30T07:36:54;10.90;;;9.80;;
4313;SDS011;2170;48.794;9.182;2023-08-30T07:39:32;10.17;;;9.40;;
4313;SDS011;2170;48.794;9.182;2023-08-30T07:42:05;12.37;;;11.33;;
4313;SDS011;2170;48.794;9.182;2023-08-30T07:44:37;11.97;;;10.97;;
4313;SDS011;2170;48.794;9.182;2023-08-30T07:47:14;11.93;;;11.03;;
4313;SDS011;2170;48.794;9.182;2023-08-30T07:49:53;10.47;;;9.87;;
4313;SDS011;2170;48.794;9.182;2023-08-30T07:52:26;11.33;;;10.43;;
4313;SDS011;2170;48.794;9.182;2023-08-30T07:54:59;11.50;;;10.70;;
4313;SDS011;2170;48.794;9.182;2023-08-30T07:57:30;15.03;;;13.93;;
4313;SDS011;2170;48.794;9.182;2023-08-30T08:00:11;13.57;;;12.47;;
4313;SDS011;2170;48.794;9.182;2023-08-30T08:02:51;10.07;;;9.30;;
4313;SDS011;2170;48.794;9.182;2023-08-30T08:05:37;9.53;;;8.93;;
4313;SDS011;2170;48.794;9.182;2023-08-30T08:08:11;9.47;;;8.60;;
4313;SDS011;2170;48.794;9.182;2023-08-30T08:10:48;7.80;;;7.20;;
4313;SDS011;2170;48.794;9.182;2023-08-30T08:13:27;8.07;;;7.37;;
4313;SDS011;2170;48.794;9.182;2023-08-30T08:16:08;7.93;;;7.43;;
4313;SDS011;2170;48.794;9.182;2023-08-30T08:18:45;7.90;;;7.40;;
4313;SDS011;2170;48.794;9.182;2023-08-30T08:24:28;8.57;;;7.97;;
4313;SDS011;2170;48.794;9.182;2023-08-30T08:27:16;7.83;;;7.23;;
4313;SDS011;2170;48.794;9.182;2023-08-30T08:30:05;7.23;;;6.60;;
4313;SDS011;2170;48.794;9.182;2023-08-30T08:32:57;7.80;;;7.23;;
4313;SDS011;2170;48.794;9.182;2023-08-30T08:35:55;6.83;;;6.33;;
4313;SDS011;2170;48.794;9.182;2023-08-30T08:38:38;8.73;;;7.60;;
4313;SDS011;2170;48.794;9.182;2023-08-30T08:41:18;8.37;;;7.70;;
4313;SDS011;2170;48.794;9.182;2023-08-30T08:44:10;7.53;;;6.90;;
4313;SDS011;2170;48.794;9.182;2023-08-30T08:46:47;7.70;;;7.17;;
4313;SDS011;2170;48.794;9.182;2023-08-30T08:49:23;7.30;;;6.67;;
4313;SDS011;2170;48.794;9.182;2023-08-30T08:51:56;7.43;;;6.83;;
4313;SDS011;2170;48.794;9.182;2023-08-30T08:54:35;7.20;;;6.70;;
4313;SDS011;2170;48.794;9.182;2023-08-30T08:57:12;7.43;;;6.90;;
4313;SDS011;2170;48.794;9.182;2023-08-30T08:59:51;6.90;;;6.50;;
4313;SDS011;2170;48.794;9.182;2023-08-30T09:02:25;7.63;;;6.90;;
4313;SDS011;2170;48.794;9.182;2023-08-30T09:05:10;6.70;;;6.20;;
4313;SDS011;2170;48.794;9.182;2023-08-30T09:07:59;6.37;;;5.87;;
4313;SDS011;2170;48.794;9.182;2023-08-30T09:10:53;6.57;;;5.97;;
4313;SDS011;2170;48.794;9.182;2023-08-30T09:13:34;6.07;;;5.57;;
4313;SDS011;2170;48.794;9.182;2023-08-30T09:19:02;5.20;;;4.90;;
4313;SDS011;2170;48.794;9.182;2023-08-30T09:22:03;5.90;;;5.50;;
4313;SDS011;2170;48.794;9.182;2023-08-30T09:25:03;5.60;;;5.10;;
4313;SDS011;2170;48.794;9.182;2023-08-30T09:28:08;6.77;;;6.27;;
4313;SDS011;2170;48.794;9.182;2023-08-30T09:30:49;5.83;;;5.50;;
4313;SDS011;2170;48.794;9.182;2023-08-30T09:33:20;5.97;;;5.50;;
4313;SDS011;2170;48.794;9.182;2023-08-30T09:35:59;5.53;;;5.13;;
4313;SDS011;2170;48.794;9.182;2023-08-30T09:38:48;4.90;;;4.60;;
4313;SDS011;2170;48.794;9.182;2023-08-30T09:41:27;4.07;;;3.87;;
4313;SDS011;2170;48.794;9.182;2023-08-30T09:44:05;4.60;;;4.30;;
4313;SDS011;2170;48.794;9.182;2023-08-30T09:46:49;4.77;;;4.37;;
4313;SDS011;2170;48.794;9.182;2023-08-30T09:49:33;4.27;;;3.90;;
4313;SDS011;2170;48.794;9.182;2023-08-30T09:52:14;4.13;;;3.83;;
4313;SDS011;2170;48.794;9.182;2023-08-30T09:54:56;3.93;;;3.63;;
4313;SDS011;2170;48.794;9.182;2023-08-30T10:01:05;5.90;;;4.00;;
4313;SDS011;2170;48.794;9.182;2023-08-30T10:03:51;3.30;;;3.10;;
4313;SDS011;2170;48.794;9.182;2023-08-30T10:06:21;3.30;;;3.10;;
4313;SDS011;2170;48.794;9.182;2023-08-30T10:08:59;3.20;;;3.00;;
4313;SDS011;2170;48.794;9.182;2023-08-30T10:11:39;2.80;;;2.70;;
4313;SDS011;2170;48.794;9.182;2023-08-30T10:14:19;3.27;;;3.07;;
4313;SDS011;2170;48.794;9.182;2023-08-30T10:16:51;3.10;;;2.90;;
4313;SDS011;2170;48.794;9.182;2023-08-30T10:19:28;2.80;;;2.70;;
4313;SDS011;2170;48.794;9.182;2023-08-30T10:22:01;2.80;;;2.60;;
4313;SDS011;2170;48.794;9.182;2023-08-30T10:24:35;2.30;;;2.20;;
4313;SDS011;2170;48.794;9.182;2023-08-30T10:27:38;2.13;;;2.03;;
4313;SDS011;2170;48.794;9.182;2023-08-30T10:30:10;2.03;;;1.93;;
4313;SDS011;2170;48.794;9.182;2023-08-30T10:33:02;2.20;;;2.10;;
4313;SDS011;2170;48.794;9.182;2023-08-30T10:36:04;3.00;;;2.20;;
4313;SDS011;2170;48.794;9.182;2023-08-30T10:38:39;2.63;;;2.40;;
4313;SDS011;2170;48.794;9.182;2023-08-30T10:41:57;2.30;;;2.20;;
4313;SDS011;2170;48.794;9.182;2023-08-30T10:44:52;1.90;;;1.80;;
4313;SDS011;2170;48.794;9.182;2023-08-30T10:47:33;2.27;;;2.17;;
4313;SDS011;2170;48.794;9.182;2023-08-30T10:50:36;2.13;;;2.03;;
4313;SDS011;2170;48.794;9.182;2023-08-30T10:53:32;2.33;;;2.23;;
4313;SDS011;2170;48.794;9.182;2023-08-30T10:56:44;2.03;;;1.93;;
4313;SDS011;2170;48.794;9.182;2023-08-30T10:59:34;2.40;;;2.30;;
4313;SDS011;2170;48.794;9.182;2023-08-30T11:02:20;2.83;;;1.90;;
4313;SDS011;2170;48.794;9.182;2023-08-30T11:04:53;2.37;;;2.20;;
4313;SDS011;2170;48.794;9.182;2023-08-30T11:07:42;2.50;;;2.30;;
4313;SDS011;2170;48.794;9.182;2023-08-30T11:10:23;2.23;;;2.03;;
4313;SDS011;2170;48.794;9.182;2023-08-30T11:13:06;2.27;;;1.80;;
4313;SDS011;2170;48.794;9.182;2023-08-30T11:15:49;2.13;;;2.00;;
4313;SDS011;2170;48.794;9.182;2023-08-30T11:18:27;2.70;;;2.50;;
4313;SDS011;2170;48.794;9.182;2023-08-30T11:21:12;2.23;;;2.13;;
4313;SDS011;2170;48.794;9.182;2023-08-30T11:24:02;1.97;;;1.87;;
4313;SDS011;2170;48.794;9.182;2023-08-30T11:26:39;2.20;;;2.10;;
4313;SDS011;2170;48.794;9.182;2023-08-30T11:29:26;2.57;;;2.43;;
4313;SDS011;2170;48.794;9.182;2023-08-30T11:32:42;2.30;;;2.20;;
4313;SDS011;2170;48.794;9.182;2023-08-30T11:35:15;2.03;;;1.97;;
4313;SDS011;2170;48.794;9.182;2023-08-30T11:37:51;2.33;;;2.23;;
4313;SDS011;2170;48.794;9.182;2023-08-30T11:40:38;3.57;;;3.00;;
4313;SDS011;2170;48.794;9.182;2023-08-30T11:43:24;3.47;;;3.27;;
4313;SDS011;2170;48.794;9.182;2023-08-30T11:46:01;3.57;;;3.17;;
4313;SDS011;2170;48.794;9.182;2023-08-30T11:48:39;3.93;;;3.73;;
4313;SDS011;2170;48.794;9.182;2023-08-30T11:51:18;3.57;;;3.40;;
4313;SDS011;2170;48.794;9.182;2023-08-30T11:54:06;3.90;;;3.70;;
4313;SDS011;2170;48.794;9.182;2023-08-30T11:56:51;3.67;;;3.47;;
4313;SDS011;2170;48.794;9.182;2023-08-30T11:59:34;4.37;;;4.07;;
4313;SDS011;2170;48.794;9.182;2023-08-30T12:02:19;3.70;;;3.50;;
4313;SDS011;2170;48.794;9.182;2023-08-30T12:05:16;3.70;;;3.40;;
4313;SDS011;2170;48.794;9.182;2023-08-30T12:07:59;4.03;;;3.73;;
4313;SDS011;2170;48.794;9.182;2023-08-30T12:10:42;3.80;;;3.50;;
4313;SDS011;2170;48.794;9.182;2023-08-30T12:16:49;3.40;;;3.20;;
4313;SDS011;2170;48.794;9.182;2023-08-30T12:19:40;3.90;;;3.70;;
4313;SDS011;2170;48.794;9.182;2023-08-30T12:25:38;3.37;;;3.17;;
4313;SDS011;2170;48.794;9.182;2023-08-30T12:31:57;4.10;;;3.80;;
4313;SDS011;2170;48.794;9.182;2023-08-30T12:34:49;4.40;;;4.20;;
4313;SDS011;2170;48.794;9.182;2023-08-30T12:37:26;3.90;;;3.70;;
4313;SDS011;2170;48.794;9.182;2023-08-30T12:40:05;4.10;;;3.90;;
4313;SDS011;2170;48.794;9.182;2023-08-30T12:42:40;4.03;;;3.77;;
4313;SDS011;2170;48.794;9.182;2023-08-30T12:45:22;4.07;;;3.80;;
4313;SDS011;2170;48.794;9.182;2023-08-30T12:48:17;3.90;;;3.50;;
4313;SDS011;2170;48.794;9.182;2023-08-30T12:51:06;3.90;;;3.60;;
4313;SDS011;2170;48.794;9.182;2023-08-30T12:53:45;4.07;;;3.77;;
4313;SDS011;2170;48.794;9.182;2023-08-30T12:56:21;5.60;;;5.10;;
4313;SDS011;2170;48.794;9.182;2023-08-30T12:59:05;4.17;;;3.97;;
4313;SDS011;2170;48.794;9.182;2023-08-30T13:01:43;4.30;;;4.00;;
4313;SDS011;2170;48.794;9.182;2023-08-30T13:04:20;4.00;;;3.70;;
4313;SDS011;2170;48.794;9.182;2023-08-30T13:07:12;4.40;;;4.00;;
4313;SDS011;2170;48.794;9.182;2023-08-30T13:09:47;4.27;;;3.97;;
4313;SDS011;2170;48.794;9.182;2023-08-30T13:12:22;4.20;;;3.80;;
4313;SDS011;2170;48.794;9.182;2023-08-30T13:15:05;5.00;;;4.53;;
4313;SDS011;2170;48.794;9.182;2023-08-30T13:17:40;4.53;;;4.23;;
4313;SDS011;2170;48.794;9.182;2023-08-30T13:20:11;4.17;;;3.87;;
4313;SDS011;2170;48.794;9.182;2023-08-30T13:22:47;4.13;;;2.87;;
4313;SDS011;2170;48.794;9.182;2023-08-30T13:25:21;2.93;;;2.83;;
4313;SDS011;2170;48.794;9.182;2023-08-30T13:49:35;4.03;;;3.73;;
4313;SDS011;2170;48.794;9.182;2023-08-30T13:52:09;4.20;;;3.80;;
4313;SDS011;2170;48.794;9.182;2023-08-30T13:54:43;4.37;;;3.30;;
4313;SDS011;2170;48.794;9.182;2023-08-30T13:57:26;3.43;;;3.17;;
4313;SDS011;2170;48.794;9.182;2023-08-30T13:59:56;4.17;;;3.37;;
4313;SDS011;2170;48.794;9.182;2023-08-30T14:02:44;2.90;;;2.80;;
4313;SDS011;2170;48.794;9.182;2023-08-30T14:05:21;2.90;;;2.70;;
4313;SDS011;2170;48.794;9.182;2023-08-30T14:07:56;2.93;;;2.60;;
4313;SDS011;2170;48.794;9.182;2023-08-30T14:10:32;3.60;;;3.40;;
4313;SDS011;2170;48.794;9.182;2023-08-30T14:13:22;3.37;;;3.17;;
4313;SDS011;2170;48.794;9.182;2023-08-30T14:15:56;3.07;;;2.90;;
4313;SDS011;2170;48.794;9.182;2023-08-30T14:18:32;2.43;;;2.33;;
4313;SDS011;2170;48.794;9.182;2023-08-30T14:21:15;2.30;;;2.20;;
4313;SDS011;2170;48.794;9.182;2023-08-30T14:24:08;2.60;;;2.50;;
4313;SDS011;2170;48.794;9.182;2023-08-30T14:39:31;3.10;;;2.80;;
4313;SDS011;2170;48.794;9.182;2023-08-30T14:42:16;4.07;;;3.20;;
4313;SDS011;2170;48.794;9.182;2023-08-30T14:44:57;3.50;;;3.30;;
4313;SDS011;2170;48.794;9.182;2023-08-30T14:47:48;3.07;;;2.97;;
4313;SDS011;2170;48.794;9.182;2023-08-30T14:50:32;3.90;;;3.60;;
4313;SDS011;2170;48.794;9.182;2023-08-30T14:53:10;3.80;;;3.50;;
4313;SDS011;2170;48.794;9.182;2023-08-30T14:56:06;3.20;;;3.00;;
4313;SDS011;2170;48.794;9.182;2023-08-30T14:59:06;3.40;;;2.97;;
4313;SDS011;2170;48.794;9.182;2023-08-30T15:01:45;3.00;;;2.90;;
4313;SDS011;2170;48.794;9.182;2023-08-30T15:04:43;3.67;;;3.40;;
4313;SDS011;2170;48.794;9.182;2023-08-30T15:08:37;3.60;;;3.37;;
4313;SDS011;2170;48.794;9.182;2023-08-30T15:11:05;3.13;;;2.97;;
4313;SDS011;2170;48.794;9.182;2023-08-30T15:13:55;3.47;;;3.27;;
4313;SDS011;2170;48.794;9.182;2023-08-30T15:16:36;3.27;;;3.07;;
4313;SDS011;2170;48.794;9.182;2023-08-30T15:19:32;2.90;;;2.80;;
4313;SDS011;2170;48.794;9.182;2023-08-30T15:22:26;3.70;;;3.40;;
4313;SDS011;2170;48.794;9.182;2023-08-30T15:25:11;3.70;;;3.40;;
4313;SDS011;2170;48.794;9.182;2023-08-30T15:28:01;3.10;;;2.90;;
4313;SDS011;2170;48.794;9.182;2023-08-30T15:30:47;4.13;;;3.83;;
4313;SDS011;2170;48.794;9.182;2023-08-30T15:33:35;2.90;;;2.70;;
4313;SDS011;2170;48.794;9.182;2023-08-30T15:39:11;2.57;;;2.47;;
4313;SDS011;2170;48.794;9.182;2023-08-30T15:41:54;2.80;;;2.57;;
4313;SDS011;2170;48.794;9.182;2023-08-30T15:44:33;3.07;;;2.90;;
4313;SDS011;2170;48.794;9.182;2023-08-30T15:47:20;3.50;;;3.30;;
4313;SDS011;2170;48.794;9.182;2023-08-30T15:49:53;3.47;;;3.23;;
4313;SDS011;2170;48.794;9.182;2023-08-30T15:52:46;3.43;;;3.23;;
4313;SDS011;2170;48.794;9.182;2023-08-30T15:55:27;3.37;;;3.07;;
4313;SDS011;2170;48.794;9.182;2023-08-30T15:58:09;4.67;;;3.00;;
4313;SDS011;2170;48.794;9.182;2023-08-30T16:00:47;3.47;;;3.17;;
4313;SDS011;2170;48.794;9.182;2023-08-30T16:03:24;3.80;;;3.50;;
4313;SDS011;2170;48.794;9.182;2023-08-30T16:06:10;3.70;;;3.50;;
4313;SDS011;2170;48.794;9.182;2023-08-30T16:08:44;4.00;;;3.60;;
4313;SDS011;2170;48.794;9.182;2023-08-30T16:11:16;3.80;;;3.50;;
4313;SDS011;2170;48.794;9.182;2023-08-30T16:13:48;5.10;;;4.70;;
4313;SDS011;2170;48.794;9.182;2023-08-30T16:25:06;3.27;;;3.03;;
4313;SDS011;2170;48.794;9.182;2023-08-30T16:27:46;3.63;;;3.30;;
4313;SDS011;2170;48.794;9.182;2023-08-30T16:30:17;3.30;;;3.10;;
4313;SDS011;2170;48.794;9.182;2023-08-30T16:32:50;3.13;;;2.93;;
4313;SDS011;2170;48.794;9.182;2023-08-30T16:35:26;3.80;;;3.00;;
4313;SDS011;2170;48.794;9.182;2023-08-30T16:37:57;4.60;;;3.23;;
4313;SDS011;2170;48.794;9.182;2023-08-30T16:40:38;3.00;;;2.80;;
4313;SDS011;2170;48.794;9.182;2023-08-30T16:43:38;5.60;;;2.90;;
4313;SDS011;2170;48.794;9.182;2023-08-30T16:46:25;6.07;;;5.53;;
4313;SDS011;2170;48.794;9.182;2023-08-30T16:49:03;4.03;;;3.73;;
4313;SDS011;2170;48.794;9.182;2023-08-30T16:51:40;3.50;;;3.20;;
4313;SDS011;2170;48.794;9.182;2023-08-30T16:54:29;2.67;;;2.47;;
4313;SDS011;2170;48.794;9.182;2023-08-30T16:57:03;3.30;;;3.00;;
4313;SDS011;2170;48.794;9.182;2023-08-30T16:59:42;2.77;;;2.40;;
4313;SDS011;2170;48.794;9.182;2023-08-30T17:02:40;2.67;;;2.47;;
4313;SDS011;2170;48.794;9.182;2023-08-30T17:05:21;2.90;;;2.77;;
4313;SDS011;2170;48.794;9.182;2023-08-30T17:08:12;2.90;;;2.80;;
4313;SDS011;2170;48.794;9.182;2023-08-30T17:11:08;3.23;;;3.03;;
4313;SDS011;2170;48.794;9.182;2023-08-30T17:14:26;3.20;;;3.00;;
4313;SDS011;2170;48.794;9.182;2023-08-30T17:27:40;3.90;;;3.57;;
4313;SDS011;2170;48.794;9.182;2023-08-30T17:30:41;3.97;;;3.67;;
4313;SDS011;2170;48.794;9.182;2023-08-30T17:33:18;4.60;;;3.20;;
4313;SDS011;2170;48.794;9.182;2023-08-30T18:05:06;4.40;;;4.10;;
4313;SDS011;2170;48.794;9.182;2023-08-30T18:07:41;5.20;;;4.00;;
4313;SDS011;2170;48.794;9.182;2023-08-30T18:10:19;7.03;;;6.33;;
4313;SDS011;2170;48.794;9.182;2023-08-30T18:12:53;5.57;;;4.43;;
4313;SDS011;2170;48.794;9.182;2023-08-30T18:15:27;4.60;;;4.30;;
4313;SDS011;2170;48.794;9.182;2023-08-30T18:18:10;4.80;;;4.50;;
4313;SDS011;2170;48.794;9.182;2023-08-30T18:21:09;4.10;;;3.80;;
4313;SDS011;2170;48.794;9.182;2023-08-30T18:27:04;5.00;;;4.60;;
4313;SDS011;2170;48.794;9.182;2023-08-30T18:29:59;5.23;;;4.63;;
4313;SDS011;2170;48.794;9.182;2023-08-30T18:32:41;5.33;;;4.93;;
4313;SDS011;2170;48.794;9.182;2023-08-30T18:35:26;4.97;;;4.60;;